createdAt,value
2023-04-27T00:01:55.883Z,0.69
2023-04-27T00:04:23.820Z,0.61
2023-04-27T00:06:52.325Z,0.53
2023-04-27T00:09:20.188Z,0.50
2023-04-27T00:11:48.125Z,0.45
2023-04-27T00:14:15.727Z,0.43
2023-04-27T00:16:43.723Z,0.43
2023-04-27T00:19:11.457Z,0.33
2023-04-27T00:21:39.619Z,0.22
2023-04-27T00:24:07.684Z,0.18
2023-04-27T00:26:35.539Z,0.16
2023-04-27T00:29:03.690Z,0.09
2023-04-27T00:31:31.653Z,0.08
2023-04-27T00:33:59.283Z,0.00
2023-04-27T00:36:27.675Z,0.04
2023-04-27T00:38:55.342Z,0.06
2023-04-27T00:41:23.833Z,0.09
2023-04-27T00:43:51.565Z,0.05
2023-04-27T00:46:19.867Z,-0.02
2023-04-27T00:48:47.847Z,-0.08
2023-04-27T00:51:15.873Z,-0.04
2023-04-27T00:53:44.380Z,-0.09
2023-04-27T00:56:13.737Z,-0.04
2023-04-27T00:58:41.396Z,0.05
2023-04-27T01:01:11.056Z,-0.05
2023-04-27T01:03:38.836Z,-0.12
2023-04-27T01:06:07.652Z,-0.17
2023-04-27T01:08:36.671Z,-0.22
2023-04-27T01:11:04.551Z,-0.22
2023-04-27T01:13:32.453Z,-0.27
2023-04-27T01:16:00.381Z,-0.28
2023-04-27T01:18:28.029Z,-0.39
2023-04-27T01:20:58.189Z,-0.44
2023-04-27T01:23:26.461Z,-0.48
2023-04-27T01:25:54.443Z,-0.47
2023-04-27T01:28:22.110Z,-0.54
2023-04-27T01:30:50.140Z,-0.60
2023-04-27T01:33:18.461Z,-0.61
2023-04-27T01:35:49.379Z,-0.49
2023-04-27T01:38:17.835Z,-0.57
2023-04-27T01:40:45.792Z,-0.59
2023-04-27T01:43:14.200Z,-0.67
2023-04-27T01:45:42.426Z,-0.75
2023-04-27T01:48:10.233Z,-0.78
2023-04-27T01:50:38.268Z,-0.83
2023-04-27T01:53:07.553Z,-0.84
2023-04-27T01:55:35.662Z,-0.88
2023-04-27T01:58:03.608Z,-0.87
2023-04-27T02:00:32.530Z,-0.91
2023-04-27T02:03:01.362Z,-0.93
2023-04-27T02:05:29.679Z,-0.93
2023-04-27T02:07:57.398Z,-0.96
2023-04-27T02:10:25.389Z,-1.02
2023-04-27T02:12:57.221Z,-1.05
2023-04-27T02:15:25.313Z,-1.02
2023-04-27T02:17:52.941Z,-1.10
2023-04-27T02:20:20.995Z,-1.14
2023-04-27T02:22:48.653Z,-1.19
2023-04-27T02:25:16.674Z,-1.16
2023-04-27T02:27:44.308Z,-1.17
2023-04-27T02:30:13.170Z,-1.18
2023-04-27T02:32:41.725Z,-1.14
2023-04-27T02:35:10.117Z,-1.18
2023-04-27T02:37:37.841Z,-1.20
2023-04-27T02:40:09.404Z,-1.16
2023-04-27T02:42:39.027Z,-1.11
2023-04-27T02:45:08.365Z,-1.19
2023-04-27T02:47:37.606Z,-1.12
2023-04-27T02:50:06.030Z,-1.16
2023-04-27T02:52:35.716Z,-1.10
2023-04-27T02:55:03.798Z,-1.22
2023-04-27T02:57:31.809Z,-1.20
2023-04-27T02:59:59.802Z,-1.20
2023-04-27T03:02:27.478Z,-1.24
2023-04-27T03:04:56.154Z,-1.19
2023-04-27T03:07:24.984Z,-1.20
2023-04-27T03:09:52.962Z,-1.11
2023-04-27T03:12:20.660Z,-1.18
2023-04-27T03:14:48.662Z,-1.22
2023-04-27T03:17:16.332Z,-1.23
2023-04-27T03:19:44.219Z,-1.18
2023-04-27T03:22:12.249Z,-1.16
2023-04-27T03:24:40.200Z,-1.01
2023-04-27T03:27:07.819Z,-0.94
2023-04-27T03:29:35.955Z,-0.94
2023-04-27T03:32:06.503Z,-0.89
2023-04-27T03:34:34.536Z,-0.83
2023-04-27T03:37:03.010Z,-0.78
2023-04-27T03:39:31.128Z,-0.73
2023-04-27T03:41:59.220Z,-0.65
2023-04-27T03:44:27.161Z,-0.50
2023-04-27T03:46:54.970Z,-0.50
2023-04-27T03:49:23.326Z,-0.51
2023-04-27T03:51:51.761Z,-0.37
2023-04-27T03:54:19.670Z,-0.17
2023-04-27T03:56:47.842Z,-0.05
2023-04-27T03:59:16.729Z,-0.09
2023-04-27T04:01:50.027Z,-0.02
2023-04-27T04:04:18.508Z,0.10
2023-04-27T04:06:46.330Z,0.20
2023-04-27T04:09:15.359Z,0.22
2023-04-27T04:11:44.330Z,0.41
2023-04-27T04:14:16.356Z,0.63
2023-04-27T04:16:44.012Z,0.70
2023-04-27T04:19:12.155Z,0.91
2023-04-27T04:21:40.078Z,1.05
2023-04-27T04:24:10.364Z,2.34
2023-04-27T04:26:39.455Z,3.29
2023-04-27T04:29:09.528Z,3.76
2023-04-27T04:31:38.883Z,5.58
2023-04-27T04:34:06.974Z,6.70
2023-04-27T04:36:34.646Z,6.40
2023-04-27T04:39:04.007Z,7.75
2023-04-27T04:41:33.413Z,9.85
2023-04-27T04:44:01.770Z,9.50
2023-04-27T04:46:30.671Z,8.05
2023-04-27T04:48:58.628Z,7.64
2023-04-27T04:51:26.365Z,8.46
2023-04-27T04:53:54.314Z,8.56
2023-04-27T04:56:24.290Z,8.57
2023-04-27T04:58:54.711Z,9.19
2023-04-27T05:01:22.417Z,9.52
2023-04-27T05:03:50.447Z,9.80
2023-04-27T05:06:18.170Z,10.24
2023-04-27T05:08:46.110Z,10.21
2023-04-27T05:11:13.900Z,9.72
2023-04-27T05:13:41.892Z,9.21
2023-04-27T05:16:09.765Z,14.59
2023-04-27T05:18:37.743Z,16.54
2023-04-27T05:21:05.504Z,14.27
2023-04-27T05:23:33.354Z,13.56
2023-04-27T05:26:01.043Z,13.04
2023-04-27T05:28:29.039Z,15.19
2023-04-27T05:30:56.635Z,15.31
2023-04-27T05:33:24.579Z,13.09
2023-04-27T05:35:52.175Z,12.18
2023-04-27T05:38:20.168Z,12.60
2023-04-27T05:40:48.180Z,15.36
2023-04-27T05:43:16.087Z,15.08
2023-04-27T05:45:43.902Z,15.77
2023-04-27T05:48:12.212Z,14.85
2023-04-27T05:50:39.988Z,14.58
2023-04-27T05:53:08.153Z,13.86
2023-04-27T05:55:35.860Z,14.72
2023-04-27T05:58:08.426Z,14.74
2023-04-27T06:00:37.037Z,14.69
2023-04-27T06:03:05.204Z,14.25
2023-04-27T06:05:34.385Z,14.68
2023-04-27T06:08:02.796Z,14.41
2023-04-27T06:10:30.467Z,14.11
2023-04-27T06:12:58.872Z,14.17
2023-04-27T06:15:26.533Z,14.39
2023-04-27T06:17:54.640Z,15.29
2023-04-27T06:20:22.439Z,16.28
2023-04-27T06:22:50.669Z,16.49
2023-04-27T06:25:18.282Z,16.76
2023-04-27T06:27:46.521Z,17.45
2023-04-27T06:30:14.354Z,17.40
2023-04-27T06:32:42.255Z,17.80
2023-04-27T06:35:10.626Z,17.95
2023-04-27T06:37:39.151Z,17.67
2023-04-27T06:40:08.185Z,17.91
2023-04-27T06:42:36.330Z,18.16
2023-04-27T06:45:05.651Z,17.53
2023-04-27T06:47:33.850Z,17.27
2023-04-27T06:50:01.589Z,17.11
2023-04-27T06:52:31.979Z,17.54
2023-04-27T06:54:59.705Z,18.19
2023-04-27T06:57:28.039Z,19.53
2023-04-27T06:59:55.718Z,20.57
2023-04-27T07:02:25.502Z,21.59
2023-04-27T07:04:53.681Z,22.57
2023-04-27T07:07:21.686Z,22.83
2023-04-27T07:09:49.337Z,22.82
2023-04-27T07:12:17.281Z,22.29
2023-04-27T07:14:44.945Z,21.83
2023-04-27T07:17:12.836Z,21.57
2023-04-27T07:19:40.543Z,22.58
2023-04-27T07:22:08.562Z,22.86
2023-04-27T07:24:36.321Z,23.23
2023-04-27T07:27:04.238Z,23.67
2023-04-27T07:29:32.349Z,24.56
2023-04-27T07:32:00.801Z,25.64
2023-04-27T07:34:35.051Z,26.60
2023-04-27T07:37:10.444Z,27.79
2023-04-27T07:39:38.193Z,28.24
2023-04-27T07:42:06.291Z,28.61
2023-04-27T07:44:33.996Z,28.29
2023-04-27T07:47:04.264Z,28.65
2023-04-27T07:49:32.444Z,29.36
2023-04-27T07:52:00.340Z,28.34
2023-04-27T07:54:28.150Z,28.53
2023-04-27T07:56:56.288Z,28.86
2023-04-27T07:59:24.002Z,28.97
2023-04-27T08:01:51.894Z,29.36
2023-04-27T08:04:19.884Z,29.53
2023-04-27T08:06:48.817Z,29.89
2023-04-27T08:09:16.605Z,29.57
2023-04-27T08:11:44.627Z,29.50
2023-04-27T08:14:13.788Z,29.50
2023-04-27T08:16:43.218Z,29.44
2023-04-27T08:19:12.140Z,29.22
2023-04-27T08:21:40.184Z,26.56
2023-04-27T08:24:07.912Z,24.48
2023-04-27T08:26:36.379Z,23.12
2023-04-27T08:29:15.742Z,20.77
2023-04-27T08:31:52.950Z,20.90
2023-04-27T08:34:22.109Z,21.17
2023-04-27T08:36:50.159Z,23.34
2023-04-27T08:39:18.384Z,25.07
2023-04-27T08:41:46.914Z,25.84
2023-04-27T08:44:14.855Z,23.41
2023-04-27T08:46:43.004Z,21.25
2023-04-27T08:49:10.868Z,22.56
2023-04-27T08:51:38.834Z,23.39
2023-04-27T08:54:06.467Z,21.87
2023-04-27T08:56:34.473Z,19.36
2023-04-27T08:59:04.612Z,17.56
2023-04-27T09:01:34.759Z,15.87
2023-04-27T09:04:02.932Z,14.59
2023-04-27T09:06:33.002Z,14.08
2023-04-27T09:09:01.699Z,13.85
2023-04-27T09:11:32.070Z,13.05
2023-04-27T09:14:02.031Z,12.48
2023-04-27T09:16:31.376Z,12.18
2023-04-27T09:19:00.330Z,12.39
2023-04-27T09:21:31.384Z,12.23
2023-04-27T09:24:09.644Z,12.25
2023-04-27T09:26:38.341Z,12.58
2023-04-27T09:29:06.059Z,12.41
2023-04-27T09:31:37.446Z,12.55
2023-04-27T09:34:05.249Z,12.55
2023-04-27T09:36:33.580Z,12.45
2023-04-27T09:39:06.854Z,12.22
2023-04-27T09:41:35.568Z,11.99
2023-04-27T09:44:03.701Z,11.93
2023-04-27T09:46:34.512Z,11.81
2023-04-27T09:49:06.025Z,11.77
2023-04-27T09:51:34.588Z,11.56
2023-04-27T09:54:04.596Z,11.50
2023-04-27T09:56:51.141Z,11.42
2023-04-27T09:59:37.417Z,11.79
2023-04-27T10:02:23.024Z,11.92
2023-04-27T10:05:33.038Z,12.25
2023-04-27T10:08:03.276Z,12.31
2023-04-27T10:10:31.296Z,12.66
2023-04-27T10:13:02.223Z,13.04
2023-04-27T10:15:30.613Z,13.40
2023-04-27T10:18:05.722Z,14.01
2023-04-27T10:20:35.924Z,14.03
2023-04-27T10:23:04.181Z,14.41
2023-04-27T10:25:42.097Z,14.70
2023-04-27T10:28:21.309Z,14.97
2023-04-27T10:30:49.629Z,14.50
2023-04-27T10:33:19.968Z,14.60
2023-04-27T10:35:56.805Z,14.42
2023-04-27T10:38:31.535Z,14.33
2023-04-27T10:41:05.458Z,14.23
2023-04-27T10:43:35.902Z,13.85
2023-04-27T10:46:14.606Z,13.60
2023-04-27T10:48:44.008Z,13.42
2023-04-27T10:51:17.486Z,13.72
2023-04-27T10:53:45.902Z,13.81
2023-04-27T10:56:14.185Z,14.26
2023-04-27T10:58:48.808Z,14.56
2023-04-27T11:01:27.143Z,14.87
2023-04-27T11:04:03.677Z,15.08
2023-04-27T11:06:34.990Z,14.75
2023-04-27T11:09:02.904Z,14.66
2023-04-27T11:11:30.667Z,14.51
2023-04-27T11:13:58.936Z,14.30
2023-04-27T11:16:26.850Z,14.27
2023-04-27T11:18:54.944Z,14.26
2023-04-27T11:21:23.558Z,14.34
2023-04-27T11:23:51.550Z,14.29
2023-04-27T11:26:25.887Z,14.26
2023-04-27T11:29:06.626Z,14.29
2023-04-27T11:31:49.426Z,14.12
2023-04-27T11:34:19.764Z,13.90
2023-04-27T11:39:41.682Z,13.32
2023-04-27T11:42:25.101Z,12.67
2023-04-27T11:45:09.134Z,12.20
2023-04-27T11:47:36.932Z,11.91
2023-04-27T11:50:08.127Z,11.74
2023-04-27T11:52:38.103Z,11.86
2023-04-27T11:55:07.132Z,11.94
2023-04-27T11:57:36.546Z,12.35
2023-04-27T12:00:14.164Z,12.81
2023-04-27T12:02:43.374Z,12.69
2023-04-27T12:05:13.174Z,12.80
2023-04-27T12:07:42.271Z,12.84
2023-04-27T12:10:10.584Z,12.74
2023-04-27T12:12:38.791Z,12.75
2023-04-27T12:15:08.550Z,12.90
2023-04-27T12:17:38.852Z,12.94
2023-04-27T12:20:07.528Z,13.11
2023-04-27T12:22:35.353Z,13.17
2023-04-27T12:25:03.387Z,13.39
2023-04-27T12:27:31.246Z,13.95
2023-04-27T12:29:59.637Z,14.09
2023-04-27T12:32:28.039Z,14.40
2023-04-27T12:34:56.265Z,14.89
2023-04-27T12:37:26.218Z,15.21
2023-04-27T12:39:54.992Z,15.43
2023-04-27T12:42:24.300Z,15.75
2023-04-27T12:44:53.126Z,16.08
2023-04-27T12:47:46.020Z,15.87
2023-04-27T12:50:10.243Z,14.98
2023-04-27T12:52:38.263Z,13.67
2023-04-27T12:55:07.103Z,13.21
2023-04-27T12:57:37.591Z,12.46
2023-04-27T13:00:10.059Z,11.99
2023-04-27T13:02:38.253Z,12.03
2023-04-27T13:05:07.919Z,11.82
2023-04-27T13:07:36.011Z,11.89
2023-04-27T13:10:03.968Z,11.83
2023-04-27T13:12:32.738Z,12.04
2023-04-27T13:15:00.515Z,12.32
2023-04-27T13:17:28.433Z,13.03
2023-04-27T13:19:56.219Z,13.34
2023-04-27T13:22:24.128Z,13.43
2023-04-27T13:24:51.775Z,13.78
2023-04-27T13:27:22.446Z,13.46
2023-04-27T13:29:51.225Z,13.11
2023-04-27T13:32:19.126Z,12.82
2023-04-27T13:34:46.972Z,12.52
2023-04-27T13:37:14.957Z,12.41
2023-04-27T13:39:42.614Z,12.61
2023-04-27T13:42:10.553Z,12.83
2023-04-27T13:44:38.299Z,13.05
2023-04-27T13:47:06.994Z,13.08
2023-04-27T13:49:34.798Z,13.23
2023-04-27T13:52:02.958Z,13.02
2023-04-27T13:54:30.834Z,12.89
2023-04-27T13:56:58.773Z,12.88
2023-04-27T13:59:26.557Z,12.78
2023-04-27T14:01:55.311Z,12.62
2023-04-27T14:04:23.016Z,12.66
2023-04-27T14:06:50.985Z,12.55
2023-04-27T14:09:18.852Z,12.41
2023-04-27T14:11:56.571Z,12.03
2023-04-27T14:14:25.442Z,11.70
2023-04-27T14:16:54.209Z,11.70
2023-04-27T14:19:22.247Z,11.47
2023-04-27T14:21:50.363Z,11.44
2023-04-27T14:24:17.997Z,11.61
2023-04-27T14:26:47.636Z,11.89
2023-04-27T14:29:15.928Z,12.21
2023-04-27T14:31:45.015Z,12.59
2023-04-27T14:34:14.731Z,12.64
2023-04-27T14:36:42.836Z,12.40
2023-04-27T14:39:10.820Z,12.44
2023-04-27T14:41:38.946Z,12.56
2023-04-27T14:44:08.201Z,12.65
2023-04-27T14:46:36.902Z,12.66
2023-04-27T14:49:04.573Z,12.45
2023-04-27T14:51:33.300Z,12.19
2023-04-27T14:54:02.331Z,12.06
2023-04-27T14:56:30.524Z,12.03
2023-04-27T14:58:58.185Z,11.79
2023-04-27T15:01:26.370Z,11.66
2023-04-27T15:03:56.618Z,11.66
2023-04-27T15:06:28.219Z,11.85
2023-04-27T15:08:56.244Z,11.58
2023-04-27T15:11:24.427Z,11.38
2023-04-27T15:13:52.074Z,11.65
2023-04-27T15:16:20.496Z,11.97
2023-04-27T15:18:48.319Z,11.94
2023-04-27T15:21:16.298Z,12.05
2023-04-27T15:23:43.938Z,12.05
2023-04-27T15:26:11.886Z,12.07
2023-04-27T15:28:39.509Z,11.80
2023-04-27T15:31:08.806Z,11.88
2023-04-27T15:33:36.531Z,11.89
2023-04-27T15:36:04.654Z,11.85
2023-04-27T15:38:32.261Z,11.80
2023-04-27T15:41:00.288Z,11.76
2023-04-27T15:43:28.052Z,11.56
2023-04-27T15:45:56.182Z,11.30
2023-04-27T15:48:23.847Z,11.25
2023-04-27T15:50:51.766Z,11.11
2023-04-27T15:53:19.418Z,10.97
2023-04-27T15:55:47.533Z,10.65
2023-04-27T15:58:16.413Z,10.49
2023-04-27T16:00:44.408Z,10.33
2023-04-27T16:03:14.278Z,10.41
2023-04-27T16:05:42.520Z,10.17
2023-04-27T16:08:10.148Z,10.20
2023-04-27T16:10:38.234Z,10.27
2023-04-27T16:13:05.995Z,10.14
2023-04-27T16:15:33.979Z,10.11
2023-04-27T16:18:02.303Z,10.09
2023-04-27T16:20:32.289Z,10.08
2023-04-27T16:23:00.717Z,10.07
2023-04-27T16:25:28.728Z,10.03
2023-04-27T16:27:58.617Z,9.93
2023-04-27T16:30:26.681Z,10.06
2023-04-27T16:32:54.528Z,10.19
2023-04-27T16:35:22.587Z,10.09
2023-04-27T16:37:50.710Z,10.09
2023-04-27T16:40:18.684Z,10.00
2023-04-27T16:42:46.784Z,10.02
2023-04-27T16:45:14.774Z,9.91
2023-04-27T16:47:42.655Z,9.75
2023-04-27T16:50:10.999Z,9.80
2023-04-27T16:52:38.631Z,9.83
2023-04-27T16:55:07.326Z,9.86
2023-04-27T16:57:35.366Z,9.68
2023-04-27T17:00:06.135Z,9.64
2023-04-27T17:02:34.070Z,9.67
2023-04-27T17:05:02.861Z,9.49
2023-04-27T17:07:32.814Z,9.48
2023-04-27T17:10:00.978Z,9.50
2023-04-27T17:12:28.684Z,9.45
2023-04-27T17:14:56.817Z,9.33
2023-04-27T17:17:24.516Z,9.17
2023-04-27T17:19:52.467Z,9.08
2023-04-27T17:22:20.220Z,8.95
2023-04-27T17:24:48.231Z,8.88
2023-04-27T17:27:16.149Z,8.89
2023-04-27T17:29:44.170Z,8.82
2023-04-27T17:32:11.970Z,8.71
2023-04-27T17:34:41.706Z,8.79
2023-04-27T17:37:10.772Z,8.86
2023-04-27T17:39:38.858Z,8.81
2023-04-27T17:42:11.895Z,8.84
2023-04-27T17:44:42.204Z,9.02
2023-04-27T17:47:10.136Z,8.97
2023-04-27T17:49:38.081Z,8.80
2023-04-27T17:52:06.193Z,8.59
2023-04-27T17:54:34.121Z,8.60
2023-04-27T17:57:02.096Z,8.47
2023-04-27T17:59:30.169Z,8.51
2023-04-27T18:01:58.745Z,8.48
2023-04-27T18:04:26.891Z,8.28
2023-04-27T18:06:54.708Z,8.15
2023-04-27T18:09:23.592Z,7.92
2023-04-27T18:11:51.321Z,7.82
2023-04-27T18:14:19.304Z,7.64
2023-04-27T18:16:46.991Z,7.46
2023-04-27T18:19:15.160Z,7.25
2023-04-27T18:21:43.087Z,6.99
2023-04-27T18:24:11.107Z,6.81
2023-04-27T18:26:38.804Z,6.66
2023-04-27T18:29:06.834Z,6.49
2023-04-27T18:31:35.076Z,6.30
2023-04-27T18:34:03.066Z,6.24
2023-04-27T18:36:31.495Z,6.15
2023-04-27T18:38:59.734Z,6.03
2023-04-27T18:41:27.515Z,5.99
2023-04-27T18:44:02.274Z,5.99
2023-04-27T18:46:30.073Z,5.98
2023-04-27T18:48:58.042Z,5.98
2023-04-27T18:51:26.390Z,6.06
2023-04-27T18:53:54.655Z,6.16
2023-04-27T18:56:22.791Z,6.19
2023-04-27T18:58:51.131Z,6.29
2023-04-27T19:01:28.180Z,6.37
2023-04-27T19:03:56.803Z,6.32
2023-04-27T19:06:24.970Z,6.17
2023-04-27T19:08:53.076Z,6.00
2023-04-27T19:11:22.448Z,5.82
2023-04-27T19:13:51.152Z,5.73
2023-04-27T19:16:18.877Z,5.64
2023-04-27T19:18:47.006Z,5.54
2023-04-27T19:21:14.768Z,5.43
2023-04-27T19:23:44.758Z,5.36
2023-04-27T19:26:13.948Z,5.31
2023-04-27T19:28:42.511Z,5.25
2023-04-27T19:31:10.444Z,5.17
2023-04-27T19:33:46.576Z,5.16
2023-04-27T19:36:14.928Z,5.05
2023-04-27T19:38:42.843Z,4.90
2023-04-27T19:41:10.710Z,4.89
2023-04-27T19:43:38.632Z,4.83
2023-04-27T19:46:06.347Z,4.71
2023-04-27T19:48:34.482Z,4.68
2023-04-27T19:51:02.113Z,4.56
2023-04-27T19:53:30.260Z,4.50
2023-04-27T19:56:00.104Z,4.42
2023-04-27T19:58:28.789Z,4.40
2023-04-27T20:00:56.487Z,4.37
2023-04-27T20:03:24.601Z,4.22
2023-04-27T20:05:52.797Z,4.18
2023-04-27T20:08:21.008Z,4.03
2023-04-27T20:10:48.679Z,3.93
2023-04-27T20:13:16.575Z,3.84
2023-04-27T20:15:44.512Z,3.75
2023-04-27T20:18:12.974Z,3.66
2023-04-27T20:20:42.024Z,3.57
2023-04-27T20:23:10.046Z,3.48
2023-04-27T20:25:38.082Z,3.41
2023-04-27T20:28:06.003Z,3.38
2023-04-27T20:30:33.653Z,3.45
2023-04-27T20:33:03.731Z,3.40
2023-04-27T20:35:31.482Z,3.24
2023-04-27T20:38:00.490Z,3.16
2023-04-27T20:40:28.258Z,3.06
2023-04-27T20:42:56.445Z,2.95
2023-04-27T20:45:25.471Z,3.00
2023-04-27T20:47:53.517Z,3.00
2023-04-27T20:50:21.336Z,2.84
2023-04-27T20:52:49.323Z,2.72
2023-04-27T20:55:17.079Z,2.64
2023-04-27T20:57:44.978Z,2.57
2023-04-27T21:00:15.347Z,2.51
2023-04-27T21:02:43.387Z,2.48
2023-04-27T21:05:11.598Z,2.44
2023-04-27T21:07:39.596Z,2.38
2023-04-27T21:10:08.085Z,2.31
2023-04-27T21:12:36.066Z,2.27
2023-04-27T21:15:03.942Z,2.24
2023-04-27T21:17:31.963Z,2.25
2023-04-27T21:19:59.599Z,2.24
2023-04-27T21:22:27.561Z,2.15
2023-04-27T21:24:55.238Z,2.07
2023-04-27T21:27:23.296Z,2.08
2023-04-27T21:29:50.977Z,2.10
2023-04-27T21:32:18.914Z,2.05
2023-04-27T21:34:46.650Z,2.02
2023-04-27T21:37:14.625Z,2.02
2023-04-27T21:39:42.347Z,2.09
2023-04-27T21:42:10.450Z,2.05
2023-04-27T21:44:38.399Z,2.07
2023-04-27T21:47:06.897Z,2.11
2023-04-27T21:49:34.670Z,2.17
2023-04-27T21:52:02.573Z,2.30
2023-04-27T21:54:30.949Z,2.26
2023-04-27T21:56:58.819Z,2.29
2023-04-27T21:59:26.497Z,2.31
2023-04-27T22:01:56.289Z,2.47
2023-04-27T22:04:25.108Z,2.45
2023-04-27T22:06:53.365Z,2.45
2023-04-27T22:09:21.231Z,2.46
2023-04-27T22:11:49.138Z,2.40
2023-04-27T22:14:17.324Z,2.37
2023-04-27T22:16:45.426Z,2.40
2023-04-27T22:19:13.134Z,2.38
2023-04-27T22:21:40.997Z,2.30
2023-04-27T22:24:08.978Z,2.24
2023-04-27T22:26:36.922Z,2.11
2023-04-27T22:29:04.569Z,2.09
2023-04-27T22:31:32.700Z,2.10
2023-04-27T22:34:01.903Z,2.02
2023-04-27T22:36:29.869Z,1.96
2023-04-27T22:38:57.599Z,1.99
2023-04-27T22:41:25.528Z,2.02
2023-04-27T22:43:53.612Z,2.09
2023-04-27T22:46:23.250Z,2.03
2023-04-27T22:48:52.997Z,2.08
2023-04-27T22:51:21.844Z,2.00
2023-04-27T22:53:49.707Z,2.00
2023-04-27T22:56:17.697Z,2.02
2023-04-27T22:58:46.642Z,2.06
2023-04-27T23:01:14.634Z,2.01
2023-04-27T23:03:42.465Z,2.03
2023-04-27T23:06:16.520Z,2.12
2023-04-27T23:08:47.445Z,2.06
2023-04-27T23:11:15.564Z,2.00
2023-04-27T23:13:44.043Z,2.02
2023-04-27T23:16:12.108Z,2.12
2023-04-27T23:18:39.787Z,2.16
2023-04-27T23:21:07.680Z,2.32
2023-04-27T23:23:35.966Z,2.47
2023-04-27T23:26:04.125Z,2.54
2023-04-27T23:28:31.809Z,2.60
2023-04-27T23:30:59.737Z,2.63
2023-04-27T23:33:27.417Z,2.63
2023-04-27T23:35:56.268Z,2.68
2023-04-27T23:38:23.993Z,2.71
2023-04-27T23:40:52.116Z,2.84
2023-04-27T23:43:19.756Z,3.33
2023-04-27T23:45:52.708Z,3.23
2023-04-27T23:48:20.704Z,3.45
2023-04-27T23:50:48.785Z,3.33
2023-04-27T23:53:16.759Z,3.26
2023-04-27T23:55:44.784Z,3.43
2023-04-27T23:58:12.476Z,3.62
